createdAt,value
2024-02-05T00:00:00.613Z,10.40
2024-02-05T00:02:27.346Z,10.30
2024-02-05T00:04:54.118Z,10.30
2024-02-05T00:07:21.039Z,10.30
2024-02-05T00:09:48.854Z,10.30
2024-02-05T00:12:17.533Z,10.30
2024-02-05T00:14:44.296Z,10.30
2024-02-05T00:17:11.122Z,10.30
2024-02-05T00:19:42.119Z,10.20
2024-02-05T00:22:09.308Z,10.20
2024-02-05T00:24:36.287Z,10.20
2024-02-05T00:27:03.827Z,10.30
2024-02-05T00:29:30.528Z,10.20
2024-02-05T00:31:57.275Z,10.20
2024-02-05T00:34:24.058Z,10.20
2024-02-05T00:36:50.852Z,10.30
2024-02-05T00:39:17.641Z,10.30
2024-02-05T00:41:44.518Z,10.30
2024-02-05T00:44:11.704Z,10.20
2024-02-05T00:46:38.712Z,10.20
2024-02-05T00:49:06.404Z,10.20
2024-02-05T00:51:33.805Z,10.20
2024-02-05T00:54:00.502Z,10.20
2024-02-05T00:56:27.306Z,10.20
2024-02-05T00:58:54.014Z,10.20
2024-02-05T01:01:20.787Z,10.20
2024-02-05T01:03:47.698Z,10.20
2024-02-05T01:06:14.701Z,10.20
2024-02-05T01:08:41.545Z,10.20
2024-02-05T01:11:08.226Z,10.20
2024-02-05T01:13:34.919Z,10.20
2024-02-05T01:16:03.960Z,10.20
2024-02-05T01:18:30.911Z,10.20
2024-02-05T01:21:00.113Z,10.20
2024-02-05T01:23:27.564Z,10.20
2024-02-05T01:25:54.469Z,10.20
2024-02-05T01:28:21.706Z,10.20
2024-02-05T01:30:48.491Z,10.20
2024-02-05T01:33:15.331Z,10.20
2024-02-05T01:35:42.079Z,10.20
2024-02-05T01:38:09.147Z,10.20
2024-02-05T01:40:38.062Z,10.20
2024-02-05T01:43:05.096Z,10.20
2024-02-05T01:45:31.871Z,10.20
2024-02-05T01:47:58.695Z,10.20
2024-02-05T01:50:25.806Z,10.20
2024-02-05T01:52:53.143Z,10.10
2024-02-05T01:55:24.445Z,10.10
2024-02-05T01:57:52.354Z,10.10
2024-02-05T02:00:19.321Z,10.10
2024-02-05T02:02:46.948Z,10.10
2024-02-05T02:05:14.446Z,10.10
2024-02-05T02:07:41.340Z,10.10
2024-02-05T02:10:08.561Z,10.10
2024-02-05T02:12:35.504Z,10.10
2024-02-05T02:15:02.472Z,10.10
2024-02-05T02:17:32.509Z,10.00
2024-02-05T02:19:59.334Z,10.10
2024-02-05T02:22:37.818Z,10.10
2024-02-05T02:25:07.774Z,10.00
2024-02-05T02:27:34.784Z,10.00
2024-02-05T02:30:02.777Z,10.00
2024-02-05T02:32:55.640Z,10.00
2024-02-05T02:35:31.550Z,10.00
2024-02-05T02:38:11.248Z,10.00
2024-02-05T02:40:40.816Z,10.00
2024-02-05T02:43:10.011Z,10.00
2024-02-05T02:45:37.125Z,10.00
2024-02-05T02:48:04.360Z,10.00
2024-02-05T02:50:31.196Z,10.00
2024-02-05T02:52:57.892Z,10.00
2024-02-05T02:55:24.593Z,9.90
2024-02-05T02:57:51.834Z,10.00
2024-02-05T03:00:18.778Z,9.90
2024-02-05T03:02:45.818Z,9.90
2024-02-05T03:05:12.654Z,10.00
2024-02-05T03:07:39.427Z,10.00
2024-02-05T03:10:07.210Z,10.00
2024-02-05T03:12:34.414Z,10.00
2024-02-05T03:15:01.742Z,10.00
2024-02-05T03:17:29.008Z,10.00
2024-02-05T03:19:55.875Z,10.00
2024-02-05T03:22:24.323Z,10.00
2024-02-05T03:24:51.122Z,10.00
2024-02-05T03:27:17.861Z,10.00
2024-02-05T03:29:44.525Z,10.00
2024-02-05T03:32:11.248Z,10.00
2024-02-05T03:34:38.008Z,10.00
2024-02-05T03:37:05.025Z,10.00
2024-02-05T03:39:32.164Z,10.00
2024-02-05T03:41:58.961Z,10.10
2024-02-05T03:44:25.869Z,10.10
2024-02-05T03:46:52.583Z,10.10
2024-02-05T03:49:19.364Z,10.10
2024-02-05T03:51:46.171Z,10.20
2024-02-05T03:54:12.912Z,10.20
2024-02-05T03:56:46.022Z,10.20
2024-02-05T03:59:13.737Z,10.20
2024-02-05T04:01:43.108Z,10.30
2024-02-05T04:04:11.967Z,10.20
2024-02-05T04:06:39.838Z,10.20
2024-02-05T04:09:08.426Z,10.20
2024-02-05T04:11:38.996Z,10.30
2024-02-05T04:14:05.753Z,10.40
2024-02-05T04:16:32.448Z,10.40
2024-02-05T04:19:00.356Z,10.30
2024-02-05T04:21:27.166Z,10.30
2024-02-05T04:23:53.896Z,10.40
2024-02-05T04:26:20.721Z,10.40
2024-02-05T04:28:49.393Z,10.40
2024-02-05T04:31:17.020Z,10.40
2024-02-05T04:33:44.977Z,10.40
2024-02-05T04:36:15.137Z,10.40
2024-02-05T04:38:42.571Z,10.50
2024-02-05T04:41:11.333Z,10.40
2024-02-05T04:43:40.005Z,10.40
2024-02-05T04:46:09.260Z,10.40
2024-02-05T04:48:36.693Z,10.40
2024-02-05T04:51:03.794Z,10.50
2024-02-05T04:53:30.493Z,10.50
2024-02-05T04:55:57.334Z,10.40
2024-02-05T04:58:24.180Z,10.40
2024-02-05T05:00:51.120Z,10.30
2024-02-05T05:03:17.890Z,10.30
2024-02-05T05:05:44.652Z,10.20
2024-02-05T05:08:11.354Z,10.20
2024-02-05T05:10:38.069Z,10.20
2024-02-05T05:13:06.578Z,10.10
2024-02-05T05:15:37.466Z,10.20
2024-02-05T05:18:05.241Z,10.20
2024-02-05T05:20:31.939Z,10.20
2024-02-05T05:22:58.800Z,10.20
2024-02-05T05:25:25.556Z,10.30
2024-02-05T05:27:52.372Z,10.30
2024-02-05T05:30:19.068Z,10.30
2024-02-05T05:32:45.837Z,10.30
2024-02-05T05:35:12.914Z,10.30
2024-02-05T05:37:41.992Z,10.30
2024-02-05T05:40:09.624Z,10.30
2024-02-05T05:42:36.667Z,10.40
2024-02-05T05:45:04.212Z,10.30
2024-02-05T05:47:34.254Z,10.30
2024-02-05T05:50:01.519Z,10.30
2024-02-05T05:52:28.867Z,10.30
2024-02-05T05:54:56.050Z,10.30
2024-02-05T05:57:22.895Z,10.30
2024-02-05T05:59:49.591Z,10.30
2024-02-05T06:02:16.358Z,10.30
2024-02-05T06:04:43.248Z,10.20
2024-02-05T06:07:10.189Z,10.20
2024-02-05T06:09:37.356Z,10.10
2024-02-05T06:12:04.290Z,10.10
2024-02-05T06:14:31.305Z,10.10
2024-02-05T06:16:58.083Z,10.10
2024-02-05T06:19:25.167Z,10.10
2024-02-05T06:21:52.210Z,10.10
2024-02-05T06:24:19.440Z,10.10
2024-02-05T06:26:47.153Z,10.00
2024-02-05T06:29:13.832Z,10.00
2024-02-05T06:31:40.562Z,10.10
2024-02-05T06:34:09.931Z,10.10
2024-02-05T06:36:37.499Z,10.00
2024-02-05T06:39:05.301Z,10.10
2024-02-05T06:41:32.472Z,10.00
2024-02-05T06:44:00.257Z,10.10
2024-02-05T06:46:27.286Z,10.00
2024-02-05T06:48:54.335Z,10.10
2024-02-05T06:51:21.598Z,10.00
2024-02-05T06:53:48.421Z,10.10
2024-02-05T06:56:16.064Z,10.00
2024-02-05T06:58:42.939Z,10.10
2024-02-05T07:01:09.892Z,10.00
2024-02-05T07:03:36.638Z,10.00
2024-02-05T07:06:03.702Z,10.00
2024-02-05T07:08:30.509Z,10.00
2024-02-05T07:10:57.258Z,10.00
2024-02-05T07:13:24.157Z,10.10
2024-02-05T07:15:50.976Z,10.00
2024-02-05T07:18:17.793Z,10.00
2024-02-05T07:20:44.581Z,10.00
2024-02-05T07:23:11.326Z,10.00
2024-02-05T07:25:40.490Z,10.00
2024-02-05T07:28:07.708Z,10.00
2024-02-05T07:30:34.546Z,10.10
2024-02-05T07:33:01.597Z,10.10
2024-02-05T07:35:28.443Z,10.00
2024-02-05T07:37:55.472Z,10.00
2024-02-05T07:40:22.201Z,10.00
2024-02-05T07:42:49.059Z,10.10
2024-02-05T07:45:15.926Z,10.10
2024-02-05T07:47:42.728Z,10.10
2024-02-05T07:50:10.435Z,10.10
2024-02-05T07:52:37.179Z,10.10
2024-02-05T07:55:08.244Z,10.10
2024-02-05T07:57:36.042Z,10.10
2024-02-05T08:00:03.092Z,10.10
2024-02-05T08:02:38.888Z,10.10
2024-02-05T08:05:06.253Z,10.10
2024-02-05T08:07:33.219Z,10.10
2024-02-05T08:09:59.984Z,10.10
2024-02-05T08:12:26.762Z,10.10
2024-02-05T08:14:53.444Z,10.10
2024-02-05T08:17:21.227Z,10.10
2024-02-05T08:19:48.113Z,10.10
2024-02-05T08:22:15.031Z,10.10
2024-02-05T08:24:41.960Z,10.10
2024-02-05T08:27:08.748Z,10.10
2024-02-05T08:29:35.474Z,10.10
2024-02-05T08:32:02.508Z,10.10
2024-02-05T08:34:30.109Z,10.10
2024-02-05T08:36:56.925Z,10.10
2024-02-05T08:39:24.724Z,10.10
2024-02-05T08:41:51.457Z,10.10
2024-02-05T08:44:18.176Z,10.10
2024-02-05T08:46:44.920Z,10.20
2024-02-05T08:49:13.452Z,10.10
2024-02-05T08:51:40.380Z,10.10
2024-02-05T08:54:07.321Z,10.10
2024-02-05T08:56:34.075Z,10.20
2024-02-05T08:59:00.763Z,10.20
2024-02-05T09:01:27.743Z,10.10
2024-02-05T09:03:54.586Z,10.20
2024-02-05T09:06:21.393Z,10.10
2024-02-05T09:08:48.096Z,10.10
2024-02-05T09:11:15.529Z,10.10
2024-02-05T09:13:42.780Z,10.10
2024-02-05T09:16:10.513Z,10.10
2024-02-05T09:18:38.210Z,10.10
2024-02-05T09:21:05.836Z,10.20
2024-02-05T09:23:34.751Z,10.10
2024-02-05T09:26:01.396Z,10.10
2024-02-05T09:28:28.435Z,10.10
2024-02-05T09:31:02.293Z,10.20
2024-02-05T09:33:36.535Z,10.10
2024-02-05T09:36:03.374Z,10.10
2024-02-05T09:38:30.122Z,10.10
2024-02-05T09:41:04.160Z,10.10
2024-02-05T09:43:33.055Z,10.20
2024-02-05T09:46:06.020Z,10.10
2024-02-05T09:48:40.732Z,10.10
2024-02-05T09:51:09.969Z,10.10
2024-02-05T09:53:37.148Z,10.20
2024-02-05T09:56:07.031Z,10.10
2024-02-05T09:58:34.075Z,10.10
2024-02-05T10:01:00.927Z,10.10
2024-02-05T10:03:31.493Z,10.20
2024-02-05T10:06:04.946Z,10.10
2024-02-05T10:08:33.319Z,10.10
2024-02-05T10:11:02.878Z,10.10
2024-02-05T10:13:31.028Z,10.10
2024-02-05T10:15:57.904Z,10.10
2024-02-05T10:18:24.777Z,10.10
2024-02-05T10:20:52.072Z,10.10
2024-02-05T10:23:18.790Z,10.10
2024-02-05T10:25:45.507Z,10.20
2024-02-05T10:28:12.293Z,10.20
2024-02-05T10:30:39.047Z,10.20
2024-02-05T10:33:06.063Z,10.20
2024-02-05T10:35:32.996Z,10.30
2024-02-05T10:38:10.243Z,10.30
2024-02-05T10:40:38.527Z,10.30
2024-02-05T10:43:06.309Z,10.30
2024-02-05T10:45:35.282Z,10.40
2024-02-05T10:48:02.620Z,10.40
2024-02-05T10:50:29.456Z,10.50
2024-02-05T10:52:57.207Z,10.50
2024-02-05T10:55:24.577Z,10.50
2024-02-05T10:57:52.151Z,10.70
2024-02-05T11:00:19.427Z,10.90
2024-02-05T11:02:56.128Z,10.90
2024-02-05T11:05:25.182Z,10.80
2024-02-05T11:08:06.162Z,10.70
2024-02-05T11:10:36.211Z,10.70
2024-02-05T11:13:06.265Z,10.60
2024-02-05T11:15:37.447Z,10.60
2024-02-05T11:18:15.110Z,10.60
2024-02-05T11:20:45.421Z,10.70
2024-02-05T11:23:17.891Z,10.70
2024-02-05T11:25:44.840Z,10.80
2024-02-05T11:28:13.826Z,10.70
2024-02-05T11:30:44.593Z,10.70
2024-02-05T11:33:13.206Z,10.70
2024-02-05T11:35:49.978Z,10.70
2024-02-05T11:38:20.249Z,10.70
2024-02-05T11:40:50.567Z,10.70
2024-02-05T11:43:26.778Z,10.80
2024-02-05T11:45:54.225Z,10.90
2024-02-05T11:48:22.052Z,10.90
2024-02-05T11:50:50.106Z,10.80
2024-02-05T11:53:18.282Z,10.90
2024-02-05T11:55:45.415Z,10.90
2024-02-05T11:58:12.915Z,10.90
2024-02-05T12:00:40.787Z,10.90
2024-02-05T12:03:08.401Z,10.90
2024-02-05T12:08:04.332Z,10.90
2024-02-05T12:10:31.388Z,10.80
2024-02-05T12:12:58.361Z,10.90
2024-02-05T12:15:30.688Z,10.90
2024-02-05T12:18:02.149Z,10.90
2024-02-05T12:20:30.824Z,10.90
2024-02-05T12:22:58.094Z,10.80
2024-02-05T12:25:35.093Z,10.80
2024-02-05T12:28:08.422Z,10.90
2024-02-05T12:30:35.314Z,10.80
2024-02-05T12:33:02.260Z,10.80
2024-02-05T12:35:29.215Z,10.80
2024-02-05T12:37:55.993Z,10.80
2024-02-05T12:40:23.735Z,10.80
2024-02-05T12:42:50.946Z,10.80
2024-02-05T12:45:18.114Z,10.80
2024-02-05T12:47:45.422Z,10.80
2024-02-05T12:50:12.360Z,10.70
2024-02-05T12:52:40.718Z,10.80
2024-02-05T12:55:08.306Z,10.80
2024-02-05T12:57:35.498Z,10.80
2024-02-05T13:00:02.366Z,10.80
2024-02-05T13:02:30.397Z,10.70
2024-02-05T13:04:57.605Z,10.70
2024-02-05T13:07:24.603Z,10.70
2024-02-05T13:09:51.625Z,10.70
2024-02-05T13:12:19.756Z,10.70
2024-02-05T13:14:46.505Z,10.70
2024-02-05T13:17:14.372Z,10.70
2024-02-05T13:19:41.122Z,10.80
2024-02-05T13:22:08.185Z,10.70
2024-02-05T13:24:36.499Z,10.80
2024-02-05T13:27:03.508Z,10.70
2024-02-05T13:29:30.662Z,10.70
2024-02-05T13:31:57.768Z,10.70
2024-02-05T13:34:28.204Z,10.70
2024-02-05T13:36:55.540Z,10.70
2024-02-05T13:39:24.019Z,10.70
2024-02-05T13:41:51.047Z,10.80
2024-02-05T13:44:20.255Z,10.80
2024-02-05T13:46:47.174Z,10.80
2024-02-05T13:49:14.030Z,10.90
2024-02-05T13:51:40.784Z,10.80
2024-02-05T13:54:07.786Z,10.80
2024-02-05T13:56:35.228Z,10.80
2024-02-05T13:59:02.213Z,10.80
2024-02-05T14:01:29.126Z,10.80
2024-02-05T14:03:55.948Z,10.80
2024-02-05T14:06:23.586Z,10.80
2024-02-05T14:08:50.414Z,10.80
2024-02-05T14:11:18.360Z,10.80
2024-02-05T14:13:45.076Z,10.80
2024-02-05T14:16:12.916Z,10.90
2024-02-05T14:18:40.030Z,10.90
2024-02-05T14:21:06.915Z,10.80
2024-02-05T14:23:33.658Z,10.80
2024-02-05T14:26:00.432Z,10.80
2024-02-05T14:28:27.259Z,10.80
2024-02-05T14:30:54.319Z,10.80
2024-02-05T14:33:21.215Z,10.80
2024-02-05T14:35:48.082Z,10.80
2024-02-05T14:38:14.842Z,10.80
2024-02-05T14:40:41.665Z,10.80
2024-02-05T14:43:08.916Z,10.70
2024-02-05T14:45:35.868Z,10.70
2024-02-05T14:48:03.141Z,10.80
2024-02-05T14:50:31.033Z,10.80
2024-02-05T14:52:57.898Z,10.80
2024-02-05T14:55:24.625Z,10.70
2024-02-05T14:57:54.686Z,10.80
2024-02-05T15:00:23.074Z,10.80
2024-02-05T15:02:49.959Z,10.80
2024-02-05T15:05:17.756Z,10.70
2024-02-05T15:07:44.822Z,10.80
2024-02-05T15:10:12.343Z,10.80
2024-02-05T15:12:40.435Z,10.80
2024-02-05T15:15:09.356Z,10.80
2024-02-05T15:17:36.472Z,10.70
2024-02-05T15:20:07.002Z,10.80
2024-02-05T15:22:34.219Z,10.80
2024-02-05T15:25:01.166Z,10.70
2024-02-05T15:27:27.999Z,10.70
2024-02-05T15:29:55.011Z,10.80
2024-02-05T15:32:22.088Z,10.80
2024-02-05T15:34:49.936Z,10.80
2024-02-05T15:37:17.111Z,10.80
2024-02-05T15:39:48.785Z,10.80
2024-02-05T15:42:15.796Z,10.80
2024-02-05T15:44:43.305Z,10.70
2024-02-05T15:47:10.102Z,10.80
2024-02-05T15:49:36.965Z,10.80
2024-02-05T15:52:04.177Z,10.80
2024-02-05T15:54:31.554Z,10.80
2024-02-05T15:56:58.280Z,10.80
2024-02-05T15:59:25.118Z,10.80
2024-02-05T16:01:52.517Z,10.80
2024-02-05T16:04:19.922Z,10.80
2024-02-05T16:06:46.958Z,10.80
2024-02-05T16:09:13.786Z,10.70
2024-02-05T16:11:40.538Z,10.70
2024-02-05T16:14:11.444Z,10.70
2024-02-05T16:16:39.135Z,10.70
2024-02-05T16:19:15.642Z,10.70
2024-02-05T16:21:47.568Z,10.70
2024-02-05T16:24:14.539Z,10.70
2024-02-05T16:26:41.282Z,10.60
2024-02-05T16:29:08.009Z,10.60
2024-02-05T16:31:35.291Z,10.60
2024-02-05T16:34:02.213Z,10.60
2024-02-05T16:36:29.042Z,10.60
2024-02-05T16:38:56.302Z,10.60
2024-02-05T16:41:24.470Z,10.60
2024-02-05T16:43:51.483Z,10.50
2024-02-05T16:46:18.308Z,10.60
2024-02-05T16:48:45.097Z,10.70
2024-02-05T16:51:11.944Z,10.60
2024-02-05T16:53:42.298Z,10.60
2024-02-05T16:56:10.468Z,10.60
2024-02-05T16:58:38.341Z,10.60
2024-02-05T17:01:05.396Z,10.50
2024-02-05T17:03:32.407Z,10.60
2024-02-05T17:05:59.163Z,10.60
2024-02-05T17:08:25.952Z,10.60
2024-02-05T17:10:52.844Z,10.60
2024-02-05T17:13:22.006Z,10.60
2024-02-05T17:15:50.082Z,10.60
2024-02-05T17:18:17.606Z,10.60
2024-02-05T17:20:44.783Z,10.60
2024-02-05T17:23:12.561Z,10.50
2024-02-05T17:25:39.605Z,10.50
2024-02-05T17:28:06.713Z,10.50
2024-02-05T17:30:36.426Z,10.50
2024-02-05T17:33:04.173Z,10.50
2024-02-05T17:35:31.352Z,10.40
2024-02-05T17:37:58.137Z,10.40
2024-02-05T17:40:24.864Z,10.40
2024-02-05T17:42:51.594Z,10.50
2024-02-05T17:45:18.499Z,10.40
2024-02-05T17:47:45.392Z,10.40
2024-02-05T17:50:12.445Z,10.40
2024-02-05T17:52:46.849Z,10.40
2024-02-05T17:55:17.197Z,10.30
2024-02-05T17:57:46.730Z,10.30
2024-02-05T18:00:13.980Z,10.30
2024-02-05T18:02:40.737Z,10.30
2024-02-05T18:05:08.392Z,10.30
2024-02-05T18:07:35.629Z,10.30
2024-02-05T18:10:02.503Z,10.30
2024-02-05T18:12:29.515Z,10.30
2024-02-05T18:14:56.205Z,10.20
2024-02-05T18:17:22.971Z,10.20
2024-02-05T18:19:49.823Z,10.20
2024-02-05T18:22:16.752Z,10.20
2024-02-05T18:24:49.903Z,10.20
2024-02-05T18:27:18.148Z,10.10
2024-02-05T18:29:44.887Z,10.20
2024-02-05T18:32:11.591Z,10.20
2024-02-05T18:34:42.592Z,10.10
2024-02-05T18:37:11.842Z,10.10
2024-02-05T18:39:38.670Z,10.10
2024-02-05T18:42:06.813Z,10.10
2024-02-05T18:44:33.541Z,10.10
2024-02-05T18:47:00.271Z,10.10
2024-02-05T18:49:29.171Z,10.10
2024-02-05T18:51:56.197Z,10.10
2024-02-05T18:54:22.982Z,10.00
2024-02-05T18:56:49.697Z,10.00
2024-02-05T18:59:16.800Z,10.00
2024-02-05T19:01:43.677Z,10.00
2024-02-05T19:04:10.650Z,10.00
2024-02-05T19:06:37.439Z,10.00
2024-02-05T19:09:04.174Z,10.00
2024-02-05T19:11:30.876Z,10.00
2024-02-05T19:13:57.581Z,10.00
2024-02-05T19:16:24.436Z,10.00
2024-02-05T19:19:00.285Z,10.00
2024-02-05T19:21:27.146Z,9.90
2024-02-05T19:23:53.943Z,9.90
2024-02-05T19:26:20.970Z,9.90
2024-02-05T19:28:48.195Z,9.90
2024-02-05T19:31:14.965Z,9.90
2024-02-05T19:33:41.937Z,9.90
2024-02-05T19:36:08.998Z,9.90
2024-02-05T19:38:35.764Z,9.90
2024-02-05T19:41:02.748Z,9.90
2024-02-05T19:43:29.599Z,9.90
2024-02-05T19:45:57.199Z,9.80
2024-02-05T19:48:24.073Z,9.80
2024-02-05T19:50:51.573Z,9.80
2024-02-05T19:53:19.312Z,9.80
2024-02-05T19:55:46.617Z,9.70
2024-02-05T19:58:13.637Z,9.70
2024-02-05T20:00:41.006Z,9.70
2024-02-05T20:03:08.222Z,9.60
2024-02-05T20:05:35.410Z,9.60
2024-02-05T20:08:02.547Z,9.60
2024-02-05T20:10:29.631Z,9.60
2024-02-05T20:12:56.427Z,9.50
2024-02-05T20:15:23.186Z,9.50
2024-02-05T20:17:49.855Z,9.50
2024-02-05T20:20:17.419Z,9.40
2024-02-05T20:22:44.366Z,9.40
2024-02-05T20:25:11.320Z,9.40
2024-02-05T20:27:40.123Z,9.40
2024-02-05T20:30:07.310Z,9.40
2024-02-05T20:32:34.095Z,9.40
2024-02-05T20:35:01.586Z,9.40
2024-02-05T20:37:28.767Z,9.40
2024-02-05T20:39:55.485Z,9.40
2024-02-05T20:42:22.636Z,9.30
2024-02-05T20:44:49.396Z,9.30
2024-02-05T20:47:17.233Z,9.30
2024-02-05T20:49:44.460Z,9.30
2024-02-05T20:52:11.468Z,9.20
2024-02-05T20:54:39.340Z,9.30
2024-02-05T20:57:06.286Z,9.20
2024-02-05T20:59:33.197Z,9.10
2024-02-05T21:02:00.007Z,9.10
2024-02-05T21:04:27.398Z,9.10
2024-02-05T21:06:54.383Z,9.10
2024-02-05T21:09:21.330Z,9.00
2024-02-05T21:11:48.971Z,9.10
2024-02-05T21:14:15.846Z,9.00
2024-02-05T21:16:43.872Z,9.00
2024-02-05T21:19:10.873Z,9.00
2024-02-05T21:21:37.820Z,8.90
2024-02-05T21:24:05.025Z,9.00
2024-02-05T21:26:34.893Z,9.00
2024-02-05T21:29:05.066Z,8.90
2024-02-05T21:31:34.784Z,8.90
2024-02-05T21:34:03.924Z,8.90
2024-02-05T21:36:31.384Z,8.90
2024-02-05T21:38:58.491Z,8.90
2024-02-05T21:41:27.801Z,8.90
2024-02-05T21:43:56.646Z,8.90
2024-02-05T21:46:23.597Z,8.80
2024-02-05T21:48:50.495Z,8.80
2024-02-05T21:51:17.244Z,8.80
2024-02-05T21:53:43.947Z,8.80
2024-02-05T21:56:10.710Z,8.80
2024-02-05T21:58:37.502Z,8.70
2024-02-05T22:04:54.092Z,8.70
2024-02-05T22:07:27.305Z,8.60
2024-02-05T22:10:38.557Z,8.50
2024-02-05T22:13:17.772Z,8.40
2024-02-05T22:15:48.544Z,8.40
2024-02-05T22:18:37.785Z,8.40
2024-02-05T22:21:21.475Z,8.40
2024-02-05T22:23:51.393Z,8.30
2024-02-05T22:29:50.045Z,8.20
2024-02-05T22:33:15.646Z,8.30
2024-02-05T22:42:29.702Z,8.10
2024-02-05T22:44:56.442Z,8.10
2024-02-05T22:47:23.157Z,8.10
2024-02-05T22:49:50.131Z,8.10
2024-02-05T22:52:16.966Z,8.10
2024-02-05T22:54:43.726Z,8.10
2024-02-05T22:57:12.411Z,8.20
2024-02-05T22:59:39.131Z,8.20
2024-02-05T23:02:06.008Z,8.20
2024-02-05T23:04:32.845Z,8.20
2024-02-05T23:06:59.963Z,8.30
2024-02-05T23:09:27.553Z,8.20
2024-02-05T23:11:55.364Z,8.30
2024-02-05T23:14:24.366Z,8.30
2024-02-05T23:16:51.286Z,8.40
2024-02-05T23:19:18.630Z,8.30
2024-02-05T23:21:45.976Z,8.30
2024-02-05T23:24:12.913Z,8.40
2024-02-05T23:26:42.901Z,8.40
2024-02-05T23:29:10.024Z,8.50
2024-02-05T23:31:37.309Z,8.50
2024-02-05T23:34:04.268Z,8.50
2024-02-05T23:36:31.236Z,8.40
2024-02-05T23:38:57.965Z,8.40
2024-02-05T23:41:25.778Z,8.30
2024-02-05T23:43:52.716Z,8.20
2024-02-05T23:46:19.582Z,8.20
2024-02-05T23:48:46.370Z,8.10
2024-02-05T23:51:13.097Z,8.20
2024-02-05T23:53:39.809Z,8.10
2024-02-05T23:56:07.370Z,8.10
2024-02-05T23:58:35.478Z,8.10
